Aeroporto :
LOGIN :

Iscrizione | Disclaimer

   EN    FR    IT 

 










Sommario :    VFR   VFR Marginale   IFR   IFR Intensivo   IFR Molto Intensivo
Visibilità : 
Base nubi : 
>= 8 km
>= 3000ft
5 / 8 km
1000 / 3000 ft
1500m / 5 km
500 / 1000 ft
800 / 1500m
200 / 500 ft
< 800m
< 200 ft
Simboli :   Temporali  Nebbia  Neve Forte  Precipitazioni Forti  Vento > 20 kt
SIGMETs :   Varie  Temporali  Ghiacco  Turbolenza  Onda orograficha  Ceneri Vulcaniche







- Altitudine del aeroporto : 247 ft
- Codice IATA : BLL


EKBI - Billund

ULTIMO METAR :
  • 180550Z AUTO 18003KT 2500 BR NCD 02/01 Q1015

METARs OBSOLETI :
  • 180520Z AUTO 16003KT 3900 BR NCD 03/02 Q1015
  • 180450Z AUTO 16004KT 4900 BR NCD 03/02 Q1015
  • 180420Z AUTO 18004KT 5000 NCD 03/02 Q1015
  • 180350Z AUTO 16004KT 5000 NCD 03/02 Q1015

TAF TAF EKBI
Valido dal 18 a 06 ore il 19 a 06 ore UTC


180514Z 1806/1906 16008KT 8000 SCT020
TEMPO 1806/1906 2000 BR BKN002
Nessun NOTAM noto per questo aeroporto.



MetMap, La meteo Aeronautica in un colpo d'occhio ! - Copyright ORBIFLY Dicembre 2007 - Disclaimer

ORBIFLY MET'MAP TEAM :

Programmazione e sviluppo : Alexandra Zaïnal
Concezione e sviluppo : Baudouin d'Aumeries
Co-Programmazione e sviluppo : Marc-Olivier Méhu
Supporto tecnico e logistico : Manuel Goepfert
Aiuto per la traduzione : Arnaldo La Scala

Contatto : metmap@orbifly.com




FONTI E CREDITI :

   NOAA